sensor_id;sensor_type;location;lat;lon;timestamp;P1;durP1;ratioP1;P2;durP2;ratioP2
84031;SDS011;74113;46.556;24.570;2023-12-29T00:02:01;21.80;;;13.90;;
84031;SDS011;74113;46.556;24.570;2023-12-29T00:04:29;22.30;;;10.90;;
84031;SDS011;74113;46.556;24.570;2023-12-29T00:06:58;27.20;;;9.90;;
84031;SDS011;74113;46.556;24.570;2023-12-29T00:09:30;19.20;;;10.50;;
84031;SDS011;74113;46.556;24.570;2023-12-29T00:12:07;23.90;;;11.90;;
84031;SDS011;74113;46.556;24.570;2023-12-29T00:14:36;24.90;;;11.60;;
84031;SDS011;74113;46.556;24.570;2023-12-29T00:17:07;22.70;;;11.20;;
84031;SDS011;74113;46.556;24.570;2023-12-29T00:19:35;22.60;;;11.60;;
84031;SDS011;74113;46.556;24.570;2023-12-29T00:24:32;17.90;;;8.70;;
84031;SDS011;74113;46.556;24.570;2023-12-29T00:27:01;26.90;;;12.50;;
84031;SDS011;74113;46.556;24.570;2023-12-29T00:29:30;19.40;;;10.80;;
84031;SDS011;74113;46.556;24.570;2023-12-29T00:32:02;21.60;;;10.60;;
84031;SDS011;74113;46.556;24.570;2023-12-29T00:34:33;27.90;;;15.20;;
84031;SDS011;74113;46.556;24.570;2023-12-29T00:37:02;26.10;;;12.70;;
84031;SDS011;74113;46.556;24.570;2023-12-29T00:39:31;27.00;;;14.40;;
84031;SDS011;74113;46.556;24.570;2023-12-29T00:42:07;26.70;;;12.70;;
84031;SDS011;74113;46.556;24.570;2023-12-29T00:44:36;21.20;;;9.90;;
84031;SDS011;74113;46.556;24.570;2023-12-29T00:49:33;27.10;;;12.60;;
84031;SDS011;74113;46.556;24.570;2023-12-29T00:52:02;20.10;;;10.70;;
84031;SDS011;74113;46.556;24.570;2023-12-29T00:54:31;26.50;;;13.10;;
84031;SDS011;74113;46.556;24.570;2023-12-29T00:57:00;25.70;;;13.50;;
84031;SDS011;74113;46.556;24.570;2023-12-29T00:59:29;23.40;;;11.90;;
84031;SDS011;74113;46.556;24.570;2023-12-29T01:01:57;22.20;;;11.90;;
84031;SDS011;74113;46.556;24.570;2023-12-29T01:04:26;20.10;;;8.10;;
84031;SDS011;74113;46.556;24.570;2023-12-29T01:06:55;22.80;;;10.10;;
84031;SDS011;74113;46.556;24.570;2023-12-29T01:09:23;25.60;;;12.20;;
84031;SDS011;74113;46.556;24.570;2023-12-29T01:11:52;21.20;;;11.60;;
84031;SDS011;74113;46.556;24.570;2023-12-29T01:16:49;22.70;;;13.10;;
84031;SDS011;74113;46.556;24.570;2023-12-29T01:21:46;14.40;;;8.30;;
84031;SDS011;74113;46.556;24.570;2023-12-29T01:24:15;15.70;;;9.00;;
84031;SDS011;74113;46.556;24.570;2023-12-29T01:26:50;19.00;;;9.30;;
84031;SDS011;74113;46.556;24.570;2023-12-29T01:29:19;12.40;;;7.30;;
84031;SDS011;74113;46.556;24.570;2023-12-29T01:34:16;20.10;;;10.10;;
84031;SDS011;74113;46.556;24.570;2023-12-29T01:36:45;15.70;;;8.40;;
84031;SDS011;74113;46.556;24.570;2023-12-29T01:41:41;17.40;;;7.90;;
84031;SDS011;74113;46.556;24.570;2023-12-29T01:44:22;12.10;;;6.60;;
84031;SDS011;74113;46.556;24.570;2023-12-29T01:46:53;16.20;;;7.40;;
84031;SDS011;74113;46.556;24.570;2023-12-29T01:49:25;18.70;;;10.60;;
84031;SDS011;74113;46.556;24.570;2023-12-29T01:51:57;17.80;;;9.90;;
84031;SDS011;74113;46.556;24.570;2023-12-29T01:54:29;13.50;;;7.10;;
84031;SDS011;74113;46.556;24.570;2023-12-29T01:57:11;18.50;;;12.30;;
84031;SDS011;74113;46.556;24.570;2023-12-29T01:59:40;17.30;;;7.80;;
84031;SDS011;74113;46.556;24.570;2023-12-29T02:02:09;13.00;;;6.00;;
84031;SDS011;74113;46.556;24.570;2023-12-29T02:07:06;18.50;;;9.10;;
84031;SDS011;74113;46.556;24.570;2023-12-29T02:09:35;13.50;;;7.00;;
84031;SDS011;74113;46.556;24.570;2023-12-29T02:12:05;13.20;;;6.30;;
84031;SDS011;74113;46.556;24.570;2023-12-29T02:14:33;13.40;;;6.40;;
84031;SDS011;74113;46.556;24.570;2023-12-29T02:19:43;10.70;;;5.20;;
84031;SDS011;74113;46.556;24.570;2023-12-29T02:22:15;13.10;;;7.90;;
84031;SDS011;74113;46.556;24.570;2023-12-29T02:24:47;13.20;;;6.20;;
84031;SDS011;74113;46.556;24.570;2023-12-29T02:32:33;11.00;;;5.50;;
84031;SDS011;74113;46.556;24.570;2023-12-29T02:35:04;9.40;;;5.10;;
84031;SDS011;74113;46.556;24.570;2023-12-29T02:37:35;14.50;;;7.50;;
84031;SDS011;74113;46.556;24.570;2023-12-29T02:40:07;9.90;;;4.80;;
84031;SDS011;74113;46.556;24.570;2023-12-29T02:42:37;16.70;;;8.20;;
84031;SDS011;74113;46.556;24.570;2023-12-29T02:45:05;11.20;;;5.20;;
84031;SDS011;74113;46.556;24.570;2023-12-29T02:47:34;13.60;;;7.90;;
84031;SDS011;74113;46.556;24.570;2023-12-29T02:52:31;12.40;;;6.00;;
84031;SDS011;74113;46.556;24.570;2023-12-29T02:55:00;11.30;;;6.50;;
84031;SDS011;74113;46.556;24.570;2023-12-29T02:57:29;10.00;;;5.00;;
84031;SDS011;74113;46.556;24.570;2023-12-29T02:59:57;11.00;;;5.30;;
84031;SDS011;74113;46.556;24.570;2023-12-29T03:02:26;9.00;;;4.10;;
84031;SDS011;74113;46.556;24.570;2023-12-29T03:07:22;9.80;;;4.20;;
84031;SDS011;74113;46.556;24.570;2023-12-29T03:09:51;9.10;;;5.20;;
84031;SDS011;74113;46.556;24.570;2023-12-29T03:14:47;7.60;;;4.50;;
84031;SDS011;74113;46.556;24.570;2023-12-29T03:17:16;7.10;;;3.80;;
84031;SDS011;74113;46.556;24.570;2023-12-29T03:22:14;9.90;;;5.10;;
84031;SDS011;74113;46.556;24.570;2023-12-29T03:27:11;8.40;;;4.50;;
84031;SDS011;74113;46.556;24.570;2023-12-29T03:29:40;7.60;;;4.10;;
84031;SDS011;74113;46.556;24.570;2023-12-29T03:34:36;8.40;;;3.70;;
84031;SDS011;74113;46.556;24.570;2023-12-29T03:39:33;7.80;;;3.30;;
84031;SDS011;74113;46.556;24.570;2023-12-29T03:42:05;8.30;;;5.10;;
84031;SDS011;74113;46.556;24.570;2023-12-29T03:44:34;7.40;;;3.80;;
84031;SDS011;74113;46.556;24.570;2023-12-29T03:47:02;8.40;;;4.90;;
84031;SDS011;74113;46.556;24.570;2023-12-29T03:51:59;5.10;;;2.40;;
84031;SDS011;74113;46.556;24.570;2023-12-29T03:54:28;7.90;;;3.70;;
84031;SDS011;74113;46.556;24.570;2023-12-29T03:56:56;7.30;;;3.10;;
84031;SDS011;74113;46.556;24.570;2023-12-29T03:59:24;8.50;;;4.00;;
84031;SDS011;74113;46.556;24.570;2023-12-29T04:01:53;7.00;;;4.70;;
84031;SDS011;74113;46.556;24.570;2023-12-29T04:04:21;4.30;;;2.40;;
84031;SDS011;74113;46.556;24.570;2023-12-29T04:06:50;8.60;;;3.90;;
84031;SDS011;74113;46.556;24.570;2023-12-29T04:09:19;8.10;;;4.30;;
84031;SDS011;74113;46.556;24.570;2023-12-29T04:11:48;8.50;;;3.70;;
84031;SDS011;74113;46.556;24.570;2023-12-29T04:14:16;8.80;;;4.20;;
84031;SDS011;74113;46.556;24.570;2023-12-29T04:16:45;6.70;;;2.40;;
84031;SDS011;74113;46.556;24.570;2023-12-29T04:19:14;6.50;;;3.40;;
84031;SDS011;74113;46.556;24.570;2023-12-29T04:21:44;7.00;;;3.20;;
84031;SDS011;74113;46.556;24.570;2023-12-29T04:24:12;6.30;;;3.10;;
84031;SDS011;74113;46.556;24.570;2023-12-29T04:26:41;6.80;;;4.50;;
84031;SDS011;74113;46.556;24.570;2023-12-29T04:31:37;6.60;;;3.70;;
84031;SDS011;74113;46.556;24.570;2023-12-29T04:34:06;5.90;;;2.00;;
84031;SDS011;74113;46.556;24.570;2023-12-29T04:36:34;14.10;;;6.40;;
84031;SDS011;74113;46.556;24.570;2023-12-29T04:41:31;8.40;;;4.10;;
84031;SDS011;74113;46.556;24.570;2023-12-29T04:44:00;8.10;;;4.70;;
84031;SDS011;74113;46.556;24.570;2023-12-29T04:46:28;11.60;;;4.50;;
84031;SDS011;74113;46.556;24.570;2023-12-29T04:48:57;9.50;;;4.40;;
84031;SDS011;74113;46.556;24.570;2023-12-29T04:51:26;7.00;;;3.20;;
84031;SDS011;74113;46.556;24.570;2023-12-29T04:53:54;5.20;;;2.50;;
84031;SDS011;74113;46.556;24.570;2023-12-29T04:56:23;6.00;;;3.90;;
84031;SDS011;74113;46.556;24.570;2023-12-29T04:58:51;5.60;;;2.90;;
84031;SDS011;74113;46.556;24.570;2023-12-29T05:01:20;6.40;;;3.10;;
84031;SDS011;74113;46.556;24.570;2023-12-29T05:06:17;8.20;;;5.10;;
84031;SDS011;74113;46.556;24.570;2023-12-29T05:11:14;7.50;;;4.20;;
84031;SDS011;74113;46.556;24.570;2023-12-29T05:16:11;6.70;;;4.90;;
84031;SDS011;74113;46.556;24.570;2023-12-29T05:18:39;8.10;;;3.40;;
84031;SDS011;74113;46.556;24.570;2023-12-29T05:21:17;5.80;;;2.60;;
84031;SDS011;74113;46.556;24.570;2023-12-29T05:23:47;8.50;;;4.50;;
84031;SDS011;74113;46.556;24.570;2023-12-29T05:26:16;7.70;;;4.50;;
84031;SDS011;74113;46.556;24.570;2023-12-29T05:28:44;6.90;;;2.90;;
84031;SDS011;74113;46.556;24.570;2023-12-29T05:33:41;7.10;;;3.20;;
84031;SDS011;74113;46.556;24.570;2023-12-29T05:36:10;6.60;;;3.20;;
84031;SDS011;74113;46.556;24.570;2023-12-29T05:38:39;7.40;;;5.10;;
84031;SDS011;74113;46.556;24.570;2023-12-29T05:41:12;8.40;;;6.20;;
84031;SDS011;74113;46.556;24.570;2023-12-29T05:43:41;10.90;;;8.20;;
84031;SDS011;74113;46.556;24.570;2023-12-29T05:48:40;9.80;;;4.10;;
84031;SDS011;74113;46.556;24.570;2023-12-29T05:51:09;9.40;;;3.60;;
84031;SDS011;74113;46.556;24.570;2023-12-29T05:53:40;7.90;;;4.10;;
84031;SDS011;74113;46.556;24.570;2023-12-29T05:56:11;8.40;;;3.20;;
84031;SDS011;74113;46.556;24.570;2023-12-29T05:58:41;8.60;;;3.60;;
84031;SDS011;74113;46.556;24.570;2023-12-29T06:01:10;8.60;;;4.60;;
84031;SDS011;74113;46.556;24.570;2023-12-29T06:03:39;6.30;;;3.00;;
84031;SDS011;74113;46.556;24.570;2023-12-29T06:06:08;6.10;;;3.40;;
84031;SDS011;74113;46.556;24.570;2023-12-29T06:08:37;6.90;;;3.20;;
84031;SDS011;74113;46.556;24.570;2023-12-29T06:13:34;11.30;;;7.00;;
84031;SDS011;74113;46.556;24.570;2023-12-29T06:16:03;9.30;;;4.30;;
84031;SDS011;74113;46.556;24.570;2023-12-29T06:18:33;9.70;;;4.30;;
84031;SDS011;74113;46.556;24.570;2023-12-29T06:21:02;10.90;;;6.80;;
84031;SDS011;74113;46.556;24.570;2023-12-29T06:23:31;9.20;;;7.60;;
84031;SDS011;74113;46.556;24.570;2023-12-29T06:25:59;8.30;;;4.40;;
84031;SDS011;74113;46.556;24.570;2023-12-29T06:28:28;7.80;;;4.80;;
84031;SDS011;74113;46.556;24.570;2023-12-29T06:30:56;10.30;;;5.70;;
84031;SDS011;74113;46.556;24.570;2023-12-29T06:33:25;7.10;;;3.50;;
84031;SDS011;74113;46.556;24.570;2023-12-29T06:35:54;7.50;;;3.30;;
84031;SDS011;74113;46.556;24.570;2023-12-29T06:38:23;8.50;;;4.20;;
84031;SDS011;74113;46.556;24.570;2023-12-29T06:40:51;9.40;;;3.90;;
84031;SDS011;74113;46.556;24.570;2023-12-29T06:43:20;9.00;;;4.40;;
84031;SDS011;74113;46.556;24.570;2023-12-29T06:45:49;9.50;;;4.80;;
84031;SDS011;74113;46.556;24.570;2023-12-29T06:48:17;9.60;;;5.30;;
84031;SDS011;74113;46.556;24.570;2023-12-29T06:50:48;9.80;;;6.10;;
84031;SDS011;74113;46.556;24.570;2023-12-29T06:55:45;7.90;;;3.90;;
84031;SDS011;74113;46.556;24.570;2023-12-29T06:58:14;13.60;;;6.20;;
84031;SDS011;74113;46.556;24.570;2023-12-29T07:03:15;7.20;;;4.00;;
84031;SDS011;74113;46.556;24.570;2023-12-29T07:05:43;8.60;;;3.80;;
84031;SDS011;74113;46.556;24.570;2023-12-29T07:08:12;12.60;;;5.20;;
84031;SDS011;74113;46.556;24.570;2023-12-29T07:10:42;13.90;;;7.00;;
84031;SDS011;74113;46.556;24.570;2023-12-29T07:13:12;16.40;;;8.40;;
84031;SDS011;74113;46.556;24.570;2023-12-29T07:15:40;12.20;;;6.00;;
84031;SDS011;74113;46.556;24.570;2023-12-29T07:18:09;13.60;;;6.10;;
84031;SDS011;74113;46.556;24.570;2023-12-29T07:20:38;12.10;;;5.00;;
84031;SDS011;74113;46.556;24.570;2023-12-29T07:23:07;11.30;;;5.90;;
84031;SDS011;74113;46.556;24.570;2023-12-29T07:25:35;12.50;;;5.20;;
84031;SDS011;74113;46.556;24.570;2023-12-29T07:28:05;11.20;;;5.70;;
84031;SDS011;74113;46.556;24.570;2023-12-29T07:30:34;15.20;;;7.10;;
84031;SDS011;74113;46.556;24.570;2023-12-29T07:33:03;10.40;;;5.20;;
84031;SDS011;74113;46.556;24.570;2023-12-29T07:35:32;9.80;;;6.10;;
84031;SDS011;74113;46.556;24.570;2023-12-29T07:40:30;13.80;;;7.40;;
84031;SDS011;74113;46.556;24.570;2023-12-29T07:42:58;11.10;;;5.20;;
84031;SDS011;74113;46.556;24.570;2023-12-29T07:45:27;7.90;;;4.50;;
84031;SDS011;74113;46.556;24.570;2023-12-29T07:50:24;5.30;;;3.20;;
84031;SDS011;74113;46.556;24.570;2023-12-29T07:55:21;9.80;;;4.40;;
84031;SDS011;74113;46.556;24.570;2023-12-29T07:57:49;9.20;;;5.10;;
84031;SDS011;74113;46.556;24.570;2023-12-29T08:00:18;7.30;;;5.40;;
84031;SDS011;74113;46.556;24.570;2023-12-29T08:02:47;9.00;;;5.00;;
84031;SDS011;74113;46.556;24.570;2023-12-29T08:05:16;8.90;;;4.90;;
84031;SDS011;74113;46.556;24.570;2023-12-29T08:07:45;4.90;;;2.90;;
84031;SDS011;74113;46.556;24.570;2023-12-29T08:10:13;7.10;;;4.20;;
84031;SDS011;74113;46.556;24.570;2023-12-29T08:12:42;13.50;;;6.10;;
84031;SDS011;74113;46.556;24.570;2023-12-29T08:15:11;9.30;;;4.40;;
84031;SDS011;74113;46.556;24.570;2023-12-29T08:17:39;10.00;;;5.00;;
84031;SDS011;74113;46.556;24.570;2023-12-29T08:20:08;10.30;;;4.70;;
84031;SDS011;74113;46.556;24.570;2023-12-29T08:22:38;11.20;;;5.20;;
84031;SDS011;74113;46.556;24.570;2023-12-29T08:25:06;17.00;;;8.80;;
84031;SDS011;74113;46.556;24.570;2023-12-29T08:27:36;8.70;;;4.90;;
84031;SDS011;74113;46.556;24.570;2023-12-29T08:30:05;10.40;;;4.90;;
84031;SDS011;74113;46.556;24.570;2023-12-29T08:32:34;10.30;;;6.00;;
84031;SDS011;74113;46.556;24.570;2023-12-29T08:35:03;10.40;;;6.50;;
84031;SDS011;74113;46.556;24.570;2023-12-29T08:37:32;11.00;;;5.10;;
84031;SDS011;74113;46.556;24.570;2023-12-29T08:40:01;12.30;;;7.20;;
84031;SDS011;74113;46.556;24.570;2023-12-29T08:42:31;9.30;;;5.10;;
84031;SDS011;74113;46.556;24.570;2023-12-29T08:44:59;14.50;;;6.50;;
84031;SDS011;74113;46.556;24.570;2023-12-29T08:47:28;19.30;;;12.30;;
84031;SDS011;74113;46.556;24.570;2023-12-29T08:49:57;16.40;;;8.10;;
84031;SDS011;74113;46.556;24.570;2023-12-29T08:52:25;13.40;;;6.50;;
84031;SDS011;74113;46.556;24.570;2023-12-29T08:54:54;11.50;;;5.70;;
84031;SDS011;74113;46.556;24.570;2023-12-29T08:59:51;14.30;;;7.10;;
84031;SDS011;74113;46.556;24.570;2023-12-29T09:02:20;15.20;;;7.20;;
84031;SDS011;74113;46.556;24.570;2023-12-29T09:04:48;18.70;;;8.80;;
84031;SDS011;74113;46.556;24.570;2023-12-29T09:09:45;14.60;;;7.90;;
84031;SDS011;74113;46.556;24.570;2023-12-29T09:12:14;9.20;;;5.40;;
84031;SDS011;74113;46.556;24.570;2023-12-29T09:14:44;12.80;;;6.60;;
84031;SDS011;74113;46.556;24.570;2023-12-29T09:17:13;10.00;;;5.20;;
84031;SDS011;74113;46.556;24.570;2023-12-29T09:19:42;8.90;;;5.10;;
84031;SDS011;74113;46.556;24.570;2023-12-29T09:22:14;10.80;;;5.90;;
84031;SDS011;74113;46.556;24.570;2023-12-29T09:24:43;12.30;;;5.40;;
84031;SDS011;74113;46.556;24.570;2023-12-29T09:29:41;8.40;;;3.70;;
84031;SDS011;74113;46.556;24.570;2023-12-29T09:32:09;8.70;;;3.90;;
84031;SDS011;74113;46.556;24.570;2023-12-29T09:34:38;9.30;;;4.50;;
84031;SDS011;74113;46.556;24.570;2023-12-29T09:37:08;7.70;;;3.50;;
84031;SDS011;74113;46.556;24.570;2023-12-29T09:39:36;10.00;;;4.90;;
84031;SDS011;74113;46.556;24.570;2023-12-29T09:42:05;15.20;;;8.00;;
84031;SDS011;74113;46.556;24.570;2023-12-29T09:44:34;11.90;;;5.50;;
84031;SDS011;74113;46.556;24.570;2023-12-29T09:47:04;16.80;;;6.00;;
84031;SDS011;74113;46.556;24.570;2023-12-29T09:49:38;15.00;;;7.00;;
84031;SDS011;74113;46.556;24.570;2023-12-29T09:52:11;20.50;;;9.20;;
84031;SDS011;74113;46.556;24.570;2023-12-29T09:54:41;11.80;;;5.10;;
84031;SDS011;74113;46.556;24.570;2023-12-29T09:57:11;10.70;;;4.60;;
84031;SDS011;74113;46.556;24.570;2023-12-29T09:59:40;13.60;;;8.40;;
84031;SDS011;74113;46.556;24.570;2023-12-29T10:02:14;13.60;;;8.10;;
84031;SDS011;74113;46.556;24.570;2023-12-29T10:04:46;8.50;;;5.30;;
84031;SDS011;74113;46.556;24.570;2023-12-29T10:07:18;15.40;;;9.00;;
84031;SDS011;74113;46.556;24.570;2023-12-29T10:09:55;19.60;;;10.10;;
84031;SDS011;74113;46.556;24.570;2023-12-29T10:12:25;11.40;;;5.60;;
84031;SDS011;74113;46.556;24.570;2023-12-29T10:20:47;14.00;;;6.20;;
84031;SDS011;74113;46.556;24.570;2023-12-29T10:23:41;13.00;;;6.90;;
84031;SDS011;74113;46.556;24.570;2023-12-29T10:26:14;15.90;;;7.80;;
84031;SDS011;74113;46.556;24.570;2023-12-29T10:28:44;12.30;;;5.80;;
84031;SDS011;74113;46.556;24.570;2023-12-29T10:31:15;14.40;;;6.50;;
84031;SDS011;74113;46.556;24.570;2023-12-29T10:33:45;20.40;;;10.40;;
84031;SDS011;74113;46.556;24.570;2023-12-29T10:38:47;19.70;;;10.40;;
84031;SDS011;74113;46.556;24.570;2023-12-29T10:41:18;30.20;;;15.60;;
84031;SDS011;74113;46.556;24.570;2023-12-29T10:43:48;27.40;;;18.60;;
84031;SDS011;74113;46.556;24.570;2023-12-29T10:46:20;26.80;;;13.60;;
84031;SDS011;74113;46.556;24.570;2023-12-29T10:48:49;18.60;;;9.10;;
84031;SDS011;74113;46.556;24.570;2023-12-29T10:51:18;17.20;;;11.20;;
84031;SDS011;74113;46.556;24.570;2023-12-29T10:53:56;18.60;;;11.00;;
84031;SDS011;74113;46.556;24.570;2023-12-29T10:56:24;14.40;;;8.90;;
84031;SDS011;74113;46.556;24.570;2023-12-29T10:59:01;11.00;;;6.40;;
84031;SDS011;74113;46.556;24.570;2023-12-29T11:01:34;11.90;;;6.60;;
84031;SDS011;74113;46.556;24.570;2023-12-29T11:04:05;19.90;;;11.70;;
84031;SDS011;74113;46.556;24.570;2023-12-29T11:06:42;20.90;;;12.00;;
84031;SDS011;74113;46.556;24.570;2023-12-29T11:09:26;21.60;;;12.50;;
84031;SDS011;74113;46.556;24.570;2023-12-29T11:12:01;16.80;;;9.00;;
84031;SDS011;74113;46.556;24.570;2023-12-29T11:14:31;16.10;;;8.80;;
84031;SDS011;74113;46.556;24.570;2023-12-29T11:17:00;17.10;;;9.00;;
84031;SDS011;74113;46.556;24.570;2023-12-29T11:19:30;17.90;;;9.80;;
84031;SDS011;74113;46.556;24.570;2023-12-29T11:22:00;18.20;;;9.80;;
84031;SDS011;74113;46.556;24.570;2023-12-29T11:24:30;13.80;;;7.30;;
84031;SDS011;74113;46.556;24.570;2023-12-29T11:27:08;14.90;;;9.70;;
84031;SDS011;74113;46.556;24.570;2023-12-29T11:29:40;14.20;;;8.10;;
84031;SDS011;74113;46.556;24.570;2023-12-29T11:32:11;13.10;;;7.60;;
84031;SDS011;74113;46.556;24.570;2023-12-29T11:34:52;13.30;;;9.50;;
84031;SDS011;74113;46.556;24.570;2023-12-29T11:40:19;12.20;;;7.30;;
84031;SDS011;74113;46.556;24.570;2023-12-29T11:42:52;11.50;;;8.20;;
84031;SDS011;74113;46.556;24.570;2023-12-29T11:45:23;12.80;;;7.40;;
84031;SDS011;74113;46.556;24.570;2023-12-29T11:47:53;11.50;;;7.30;;
84031;SDS011;74113;46.556;24.570;2023-12-29T11:50:32;10.50;;;5.50;;
84031;SDS011;74113;46.556;24.570;2023-12-29T11:53:02;11.50;;;6.50;;
84031;SDS011;74113;46.556;24.570;2023-12-29T11:58:26;10.20;;;6.60;;
84031;SDS011;74113;46.556;24.570;2023-12-29T12:00:59;9.10;;;5.60;;
84031;SDS011;74113;46.556;24.570;2023-12-29T12:03:28;11.90;;;7.00;;
84031;SDS011;74113;46.556;24.570;2023-12-29T12:06:00;11.20;;;6.30;;
84031;SDS011;74113;46.556;24.570;2023-12-29T12:08:33;9.80;;;5.80;;
84031;SDS011;74113;46.556;24.570;2023-12-29T12:13:57;22.30;;;11.90;;
84031;SDS011;74113;46.556;24.570;2023-12-29T12:19:14;19.50;;;10.20;;
84031;SDS011;74113;46.556;24.570;2023-12-29T12:21:45;15.00;;;10.20;;
84031;SDS011;74113;46.556;24.570;2023-12-29T12:24:20;15.30;;;8.20;;
84031;SDS011;74113;46.556;24.570;2023-12-29T12:26:49;14.40;;;7.90;;
84031;SDS011;74113;46.556;24.570;2023-12-29T12:29:17;10.80;;;7.40;;
84031;SDS011;74113;46.556;24.570;2023-12-29T12:31:51;10.40;;;6.20;;
84031;SDS011;74113;46.556;24.570;2023-12-29T12:34:23;10.10;;;5.70;;
84031;SDS011;74113;46.556;24.570;2023-12-29T12:36:53;11.10;;;6.50;;
84031;SDS011;74113;46.556;24.570;2023-12-29T12:39:40;11.20;;;6.40;;
84031;SDS011;74113;46.556;24.570;2023-12-29T12:42:09;10.00;;;5.30;;
84031;SDS011;74113;46.556;24.570;2023-12-29T12:44:38;10.60;;;7.60;;
84031;SDS011;74113;46.556;24.570;2023-12-29T12:47:13;10.20;;;7.40;;
84031;SDS011;74113;46.556;24.570;2023-12-29T12:49:46;9.10;;;5.20;;
84031;SDS011;74113;46.556;24.570;2023-12-29T12:52:15;11.30;;;9.60;;
84031;SDS011;74113;46.556;24.570;2023-12-29T12:54:45;7.90;;;4.70;;
84031;SDS011;74113;46.556;24.570;2023-12-29T12:57:18;8.20;;;4.90;;
84031;SDS011;74113;46.556;24.570;2023-12-29T12:59:49;10.80;;;6.50;;
84031;SDS011;74113;46.556;24.570;2023-12-29T13:02:19;8.30;;;4.70;;
84031;SDS011;74113;46.556;24.570;2023-12-29T13:04:49;7.00;;;3.80;;
84031;SDS011;74113;46.556;24.570;2023-12-29T13:07:19;10.70;;;7.20;;
84031;SDS011;74113;46.556;24.570;2023-12-29T13:09:48;8.90;;;7.80;;
84031;SDS011;74113;46.556;24.570;2023-12-29T13:12:19;7.80;;;5.30;;
84031;SDS011;74113;46.556;24.570;2023-12-29T13:14:48;8.40;;;3.90;;
84031;SDS011;74113;46.556;24.570;2023-12-29T13:17:17;9.00;;;6.20;;
84031;SDS011;74113;46.556;24.570;2023-12-29T13:19:45;8.40;;;4.80;;
84031;SDS011;74113;46.556;24.570;2023-12-29T13:22:14;9.90;;;5.30;;
84031;SDS011;74113;46.556;24.570;2023-12-29T13:24:44;7.30;;;4.40;;
84031;SDS011;74113;46.556;24.570;2023-12-29T13:27:13;10.40;;;7.30;;
84031;SDS011;74113;46.556;24.570;2023-12-29T13:29:43;14.50;;;7.70;;
84031;SDS011;74113;46.556;24.570;2023-12-29T13:32:15;19.90;;;9.70;;
84031;SDS011;74113;46.556;24.570;2023-12-29T13:37:37;13.60;;;7.50;;
84031;SDS011;74113;46.556;24.570;2023-12-29T13:40:14;11.70;;;6.40;;
84031;SDS011;74113;46.556;24.570;2023-12-29T13:42:50;14.00;;;7.80;;
84031;SDS011;74113;46.556;24.570;2023-12-29T13:45:23;12.00;;;6.60;;
84031;SDS011;74113;46.556;24.570;2023-12-29T13:47:53;11.40;;;5.70;;
84031;SDS011;74113;46.556;24.570;2023-12-29T13:50:23;10.40;;;8.30;;
84031;SDS011;74113;46.556;24.570;2023-12-29T13:52:52;10.50;;;5.60;;
84031;SDS011;74113;46.556;24.570;2023-12-29T13:55:21;17.00;;;9.40;;
84031;SDS011;74113;46.556;24.570;2023-12-29T13:57:53;12.70;;;8.00;;
84031;SDS011;74113;46.556;24.570;2023-12-29T14:00:23;14.20;;;8.00;;
84031;SDS011;74113;46.556;24.570;2023-12-29T14:05:34;10.60;;;6.10;;
84031;SDS011;74113;46.556;24.570;2023-12-29T14:08:16;8.50;;;5.70;;
84031;SDS011;74113;46.556;24.570;2023-12-29T14:10:49;10.20;;;5.90;;
84031;SDS011;74113;46.556;24.570;2023-12-29T14:13:17;9.40;;;5.60;;
84031;SDS011;74113;46.556;24.570;2023-12-29T14:15:46;10.90;;;6.60;;
84031;SDS011;74113;46.556;24.570;2023-12-29T14:21:28;9.40;;;5.40;;
84031;SDS011;74113;46.556;24.570;2023-12-29T14:24:14;11.70;;;5.80;;
84031;SDS011;74113;46.556;24.570;2023-12-29T14:29:21;14.60;;;7.80;;
84031;SDS011;74113;46.556;24.570;2023-12-29T14:31:51;13.10;;;8.90;;
84031;SDS011;74113;46.556;24.570;2023-12-29T14:34:20;13.00;;;6.90;;
84031;SDS011;74113;46.556;24.570;2023-12-29T14:36:49;15.10;;;9.00;;
84031;SDS011;74113;46.556;24.570;2023-12-29T14:39:17;13.60;;;8.60;;
84031;SDS011;74113;46.556;24.570;2023-12-29T14:41:46;16.40;;;9.80;;
84031;SDS011;74113;46.556;24.570;2023-12-29T14:44:16;14.30;;;8.30;;
84031;SDS011;74113;46.556;24.570;2023-12-29T14:46:45;12.10;;;6.90;;
84031;SDS011;74113;46.556;24.570;2023-12-29T14:49:13;11.20;;;6.80;;
84031;SDS011;74113;46.556;24.570;2023-12-29T14:51:42;14.30;;;8.80;;
84031;SDS011;74113;46.556;24.570;2023-12-29T14:54:11;13.10;;;7.00;;
84031;SDS011;74113;46.556;24.570;2023-12-29T14:56:39;11.80;;;6.00;;
84031;SDS011;74113;46.556;24.570;2023-12-29T14:59:07;12.90;;;7.80;;
84031;SDS011;74113;46.556;24.570;2023-12-29T15:01:38;15.30;;;7.40;;
84031;SDS011;74113;46.556;24.570;2023-12-29T15:04:07;14.90;;;7.60;;
84031;SDS011;74113;46.556;24.570;2023-12-29T15:06:39;13.50;;;7.40;;
84031;SDS011;74113;46.556;24.570;2023-12-29T15:09:08;14.30;;;7.70;;
84031;SDS011;74113;46.556;24.570;2023-12-29T15:11:38;14.10;;;8.80;;
84031;SDS011;74113;46.556;24.570;2023-12-29T15:16:35;15.40;;;8.80;;
84031;SDS011;74113;46.556;24.570;2023-12-29T15:21:34;10.70;;;6.20;;
84031;SDS011;74113;46.556;24.570;2023-12-29T15:24:02;13.60;;;7.80;;
84031;SDS011;74113;46.556;24.570;2023-12-29T15:26:32;12.80;;;7.00;;
84031;SDS011;74113;46.556;24.570;2023-12-29T15:29:00;12.90;;;5.70;;
84031;SDS011;74113;46.556;24.570;2023-12-29T15:31:30;13.60;;;8.20;;
84031;SDS011;74113;46.556;24.570;2023-12-29T15:33:59;10.30;;;6.00;;
84031;SDS011;74113;46.556;24.570;2023-12-29T15:36:27;10.40;;;5.70;;
84031;SDS011;74113;46.556;24.570;2023-12-29T15:38:56;12.10;;;7.80;;
84031;SDS011;74113;46.556;24.570;2023-12-29T15:41:26;13.90;;;8.60;;
84031;SDS011;74113;46.556;24.570;2023-12-29T15:43:54;13.70;;;10.00;;
84031;SDS011;74113;46.556;24.570;2023-12-29T15:46:23;14.10;;;7.70;;
84031;SDS011;74113;46.556;24.570;2023-12-29T15:48:51;10.70;;;6.60;;
84031;SDS011;74113;46.556;24.570;2023-12-29T15:51:20;14.20;;;6.70;;
84031;SDS011;74113;46.556;24.570;2023-12-29T15:53:49;15.60;;;7.30;;
84031;SDS011;74113;46.556;24.570;2023-12-29T15:56:20;14.80;;;8.80;;
84031;SDS011;74113;46.556;24.570;2023-12-29T15:58:48;12.70;;;6.90;;
84031;SDS011;74113;46.556;24.570;2023-12-29T16:01:24;13.50;;;10.00;;
84031;SDS011;74113;46.556;24.570;2023-12-29T16:03:56;12.20;;;7.30;;
84031;SDS011;74113;46.556;24.570;2023-12-29T16:06:27;12.80;;;7.90;;
84031;SDS011;74113;46.556;24.570;2023-12-29T16:08:56;14.10;;;7.40;;
84031;SDS011;74113;46.556;24.570;2023-12-29T16:11:26;14.50;;;7.60;;
84031;SDS011;74113;46.556;24.570;2023-12-29T16:13:56;12.20;;;8.10;;
84031;SDS011;74113;46.556;24.570;2023-12-29T16:16:26;14.40;;;8.70;;
84031;SDS011;74113;46.556;24.570;2023-12-29T16:18:59;17.60;;;8.90;;
84031;SDS011;74113;46.556;24.570;2023-12-29T16:21:35;16.00;;;8.60;;
84031;SDS011;74113;46.556;24.570;2023-12-29T16:24:07;16.90;;;11.00;;
84031;SDS011;74113;46.556;24.570;2023-12-29T16:26:44;15.90;;;8.10;;
84031;SDS011;74113;46.556;24.570;2023-12-29T16:29:15;14.50;;;7.40;;
84031;SDS011;74113;46.556;24.570;2023-12-29T16:31:46;13.60;;;7.10;;
84031;SDS011;74113;46.556;24.570;2023-12-29T16:34:15;16.20;;;8.10;;
84031;SDS011;74113;46.556;24.570;2023-12-29T16:36:55;19.10;;;10.30;;
84031;SDS011;74113;46.556;24.570;2023-12-29T16:39:27;17.90;;;10.80;;
84031;SDS011;74113;46.556;24.570;2023-12-29T16:41:56;13.90;;;6.80;;